sensor_id;sensor_type;location;lat;lon;timestamp;P1;durP1;ratioP1;P2;durP2;ratioP2
71484;SDS011;59300;52.074;4.758;2022-07-18T00:00:24;13.40;;;8.95;;
71484;SDS011;59300;52.074;4.758;2022-07-18T00:03:43;12.23;;;7.80;;
71484;SDS011;59300;52.074;4.758;2022-07-18T00:07:02;11.80;;;7.63;;
71484;SDS011;59300;52.074;4.758;2022-07-18T00:10:22;12.25;;;7.18;;
71484;SDS011;59300;52.074;4.758;2022-07-18T00:13:41;13.10;;;7.10;;
71484;SDS011;59300;52.074;4.758;2022-07-18T00:17:00;10.00;;;6.88;;
71484;SDS011;59300;52.074;4.758;2022-07-18T00:20:21;9.50;;;6.82;;
71484;SDS011;59300;52.074;4.758;2022-07-18T00:23:39;10.15;;;7.05;;
71484;SDS011;59300;52.074;4.758;2022-07-18T00:26:59;10.40;;;6.88;;
71484;SDS011;59300;52.074;4.758;2022-07-18T00:30:18;12.02;;;7.47;;
71484;SDS011;59300;52.074;4.758;2022-07-18T00:33:37;12.63;;;6.93;;
71484;SDS011;59300;52.074;4.758;2022-07-18T00:36:57;14.55;;;8.43;;
71484;SDS011;59300;52.074;4.758;2022-07-18T00:40:16;11.60;;;7.38;;
71484;SDS011;59300;52.074;4.758;2022-07-18T00:43:35;10.98;;;6.82;;
71484;SDS011;59300;52.074;4.758;2022-07-18T00:46:55;10.73;;;7.88;;
71484;SDS011;59300;52.074;4.758;2022-07-18T00:50:16;11.13;;;6.93;;
71484;SDS011;59300;52.074;4.758;2022-07-18T00:53:35;14.32;;;7.95;;
71484;SDS011;59300;52.074;4.758;2022-07-18T00:56:54;10.60;;;7.63;;
71484;SDS011;59300;52.074;4.758;2022-07-18T01:00:13;13.95;;;8.25;;
71484;SDS011;59300;52.074;4.758;2022-07-18T01:03:32;12.15;;;8.00;;
71484;SDS011;59300;52.074;4.758;2022-07-18T01:06:51;14.63;;;8.20;;
71484;SDS011;59300;52.074;4.758;2022-07-18T01:10:10;14.85;;;7.65;;
71484;SDS011;59300;52.074;4.758;2022-07-18T01:13:30;12.48;;;8.10;;
71484;SDS011;59300;52.074;4.758;2022-07-18T01:16:49;15.15;;;7.90;;
71484;SDS011;59300;52.074;4.758;2022-07-18T01:20:09;14.20;;;8.65;;
71484;SDS011;59300;52.074;4.758;2022-07-18T01:23:28;11.15;;;7.90;;
71484;SDS011;59300;52.074;4.758;2022-07-18T01:26:47;10.63;;;6.88;;
71484;SDS011;59300;52.074;4.758;2022-07-18T01:30:06;12.20;;;8.43;;
71484;SDS011;59300;52.074;4.758;2022-07-18T01:33:26;12.00;;;8.20;;
71484;SDS011;59300;52.074;4.758;2022-07-18T01:36:45;11.98;;;7.97;;
71484;SDS011;59300;52.074;4.758;2022-07-18T01:40:08;11.40;;;7.45;;
71484;SDS011;59300;52.074;4.758;2022-07-18T01:46:47;11.27;;;7.63;;
71484;SDS011;59300;52.074;4.758;2022-07-18T01:50:07;12.05;;;8.00;;
71484;SDS011;59300;52.074;4.758;2022-07-18T01:53:27;11.32;;;7.78;;
71484;SDS011;59300;52.074;4.758;2022-07-18T01:56:46;13.40;;;7.90;;
71484;SDS011;59300;52.074;4.758;2022-07-18T02:00:06;15.57;;;7.78;;
71484;SDS011;59300;52.074;4.758;2022-07-18T02:03:28;11.23;;;7.32;;
71484;SDS011;59300;52.074;4.758;2022-07-18T02:06:47;11.75;;;7.85;;
71484;SDS011;59300;52.074;4.758;2022-07-18T02:10:07;9.73;;;6.72;;
71484;SDS011;59300;52.074;4.758;2022-07-18T02:13:28;13.20;;;7.72;;
71484;SDS011;59300;52.074;4.758;2022-07-18T02:16:46;13.63;;;7.60;;
71484;SDS011;59300;52.074;4.758;2022-07-18T02:20:06;12.15;;;7.50;;
71484;SDS011;59300;52.074;4.758;2022-07-18T02:23:27;13.48;;;8.30;;
71484;SDS011;59300;52.074;4.758;2022-07-18T02:26:46;10.68;;;7.60;;
71484;SDS011;59300;52.074;4.758;2022-07-18T02:30:06;12.25;;;7.63;;
71484;SDS011;59300;52.074;4.758;2022-07-18T02:33:26;12.93;;;7.40;;
71484;SDS011;59300;52.074;4.758;2022-07-18T02:36:45;11.02;;;7.03;;
71484;SDS011;59300;52.074;4.758;2022-07-18T02:40:06;12.18;;;7.28;;
71484;SDS011;59300;52.074;4.758;2022-07-18T02:43:26;11.38;;;6.90;;
71484;SDS011;59300;52.074;4.758;2022-07-18T02:46:45;10.13;;;7.32;;
71484;SDS011;59300;52.074;4.758;2022-07-18T02:50:04;10.60;;;7.18;;
71484;SDS011;59300;52.074;4.758;2022-07-18T02:53:23;13.27;;;7.32;;
71484;SDS011;59300;52.074;4.758;2022-07-18T02:56:42;11.30;;;6.40;;
71484;SDS011;59300;52.074;4.758;2022-07-18T03:00:03;10.95;;;6.95;;
71484;SDS011;59300;52.074;4.758;2022-07-18T03:03:23;11.25;;;6.82;;
71484;SDS011;59300;52.074;4.758;2022-07-18T03:06:42;11.27;;;7.10;;
71484;SDS011;59300;52.074;4.758;2022-07-18T03:10:02;11.68;;;7.20;;
71484;SDS011;59300;52.074;4.758;2022-07-18T03:13:22;9.52;;;6.28;;
71484;SDS011;59300;52.074;4.758;2022-07-18T03:16:41;9.73;;;7.13;;
71484;SDS011;59300;52.074;4.758;2022-07-18T03:20:00;9.77;;;7.18;;
71484;SDS011;59300;52.074;4.758;2022-07-18T03:23:19;11.75;;;6.93;;
71484;SDS011;59300;52.074;4.758;2022-07-18T03:26:38;12.10;;;7.70;;
71484;SDS011;59300;52.074;4.758;2022-07-18T03:29:57;10.65;;;7.22;;
71484;SDS011;59300;52.074;4.758;2022-07-18T03:33:16;11.82;;;7.45;;
71484;SDS011;59300;52.074;4.758;2022-07-18T03:36:35;11.38;;;7.78;;
71484;SDS011;59300;52.074;4.758;2022-07-18T03:39:54;13.18;;;7.85;;
71484;SDS011;59300;52.074;4.758;2022-07-18T03:43:13;12.30;;;8.00;;
71484;SDS011;59300;52.074;4.758;2022-07-18T03:46:32;10.45;;;7.60;;
71484;SDS011;59300;52.074;4.758;2022-07-18T03:49:51;12.68;;;8.05;;
71484;SDS011;59300;52.074;4.758;2022-07-18T03:53:10;13.57;;;8.05;;
71484;SDS011;59300;52.074;4.758;2022-07-18T03:56:29;12.23;;;8.15;;
71484;SDS011;59300;52.074;4.758;2022-07-18T03:59:48;13.32;;;9.32;;
71484;SDS011;59300;52.074;4.758;2022-07-18T04:03:07;14.57;;;8.93;;
71484;SDS011;59300;52.074;4.758;2022-07-18T04:06:26;10.95;;;7.88;;
71484;SDS011;59300;52.074;4.758;2022-07-18T04:09:45;14.77;;;9.27;;
71484;SDS011;59300;52.074;4.758;2022-07-18T04:13:04;12.68;;;8.95;;
71484;SDS011;59300;52.074;4.758;2022-07-18T04:16:23;12.07;;;8.80;;
71484;SDS011;59300;52.074;4.758;2022-07-18T04:19:42;17.40;;;9.20;;
71484;SDS011;59300;52.074;4.758;2022-07-18T04:23:02;18.58;;;10.00;;
71484;SDS011;59300;52.074;4.758;2022-07-18T04:26:23;14.02;;;9.70;;
71484;SDS011;59300;52.074;4.758;2022-07-18T04:29:42;15.50;;;9.15;;
71484;SDS011;59300;52.074;4.758;2022-07-18T04:33:05;15.25;;;9.43;;
71484;SDS011;59300;52.074;4.758;2022-07-18T04:36:25;16.33;;;9.02;;
71484;SDS011;59300;52.074;4.758;2022-07-18T04:39:44;13.15;;;8.90;;
71484;SDS011;59300;52.074;4.758;2022-07-18T04:43:03;12.93;;;7.97;;
71484;SDS011;59300;52.074;4.758;2022-07-18T04:46:22;15.20;;;9.25;;
71484;SDS011;59300;52.074;4.758;2022-07-18T04:49:41;16.75;;;8.88;;
71484;SDS011;59300;52.074;4.758;2022-07-18T04:53:00;12.00;;;7.88;;
71484;SDS011;59300;52.074;4.758;2022-07-18T04:56:19;12.85;;;8.45;;
71484;SDS011;59300;52.074;4.758;2022-07-18T04:59:42;14.95;;;7.75;;
71484;SDS011;59300;52.074;4.758;2022-07-18T05:03:01;17.45;;;9.30;;
71484;SDS011;59300;52.074;4.758;2022-07-18T05:06:20;13.77;;;8.88;;
71484;SDS011;59300;52.074;4.758;2022-07-18T05:09:40;18.63;;;9.13;;
71484;SDS011;59300;52.074;4.758;2022-07-18T05:12:59;12.55;;;7.93;;
71484;SDS011;59300;52.074;4.758;2022-07-18T05:16:18;19.25;;;8.63;;
71484;SDS011;59300;52.074;4.758;2022-07-18T05:19:36;11.55;;;8.10;;
71484;SDS011;59300;52.074;4.758;2022-07-18T05:22:55;14.45;;;8.00;;
71484;SDS011;59300;52.074;4.758;2022-07-18T05:26:14;15.60;;;8.52;;
71484;SDS011;59300;52.074;4.758;2022-07-18T05:29:33;16.70;;;8.60;;
71484;SDS011;59300;52.074;4.758;2022-07-18T05:32:52;16.17;;;8.88;;
71484;SDS011;59300;52.074;4.758;2022-07-18T05:36:11;14.20;;;8.10;;
71484;SDS011;59300;52.074;4.758;2022-07-18T05:39:30;13.00;;;8.60;;
71484;SDS011;59300;52.074;4.758;2022-07-18T05:42:49;12.02;;;8.10;;
71484;SDS011;59300;52.074;4.758;2022-07-18T05:46:08;12.45;;;8.70;;
71484;SDS011;59300;52.074;4.758;2022-07-18T05:49:28;13.32;;;7.70;;
71484;SDS011;59300;52.074;4.758;2022-07-18T05:52:47;14.35;;;8.95;;
71484;SDS011;59300;52.074;4.758;2022-07-18T05:56:06;12.73;;;8.18;;
71484;SDS011;59300;52.074;4.758;2022-07-18T05:59:25;12.52;;;8.07;;
71484;SDS011;59300;52.074;4.758;2022-07-18T06:02:46;16.65;;;8.02;;
71484;SDS011;59300;52.074;4.758;2022-07-18T06:06:06;11.90;;;7.97;;
71484;SDS011;59300;52.074;4.758;2022-07-18T06:09:26;9.60;;;7.35;;
71484;SDS011;59300;52.074;4.758;2022-07-18T06:12:45;14.35;;;8.25;;
71484;SDS011;59300;52.074;4.758;2022-07-18T06:16:04;10.60;;;7.45;;
71484;SDS011;59300;52.074;4.758;2022-07-18T06:19:24;10.32;;;7.47;;
71484;SDS011;59300;52.074;4.758;2022-07-18T06:22:43;13.38;;;8.32;;
71484;SDS011;59300;52.074;4.758;2022-07-18T06:26:02;12.70;;;7.65;;
71484;SDS011;59300;52.074;4.758;2022-07-18T06:29:21;11.55;;;8.25;;
71484;SDS011;59300;52.074;4.758;2022-07-18T06:32:40;10.30;;;7.93;;
71484;SDS011;59300;52.074;4.758;2022-07-18T06:35:59;12.32;;;8.13;;
71484;SDS011;59300;52.074;4.758;2022-07-18T06:39:18;13.73;;;6.82;;
71484;SDS011;59300;52.074;4.758;2022-07-18T06:42:37;14.50;;;7.85;;
71484;SDS011;59300;52.074;4.758;2022-07-18T06:45:56;13.70;;;7.90;;
71484;SDS011;59300;52.074;4.758;2022-07-18T06:49:15;11.00;;;6.78;;
71484;SDS011;59300;52.074;4.758;2022-07-18T06:52:34;8.88;;;6.78;;
71484;SDS011;59300;52.074;4.758;2022-07-18T06:55:55;11.80;;;7.63;;
71484;SDS011;59300;52.074;4.758;2022-07-18T06:59:14;9.93;;;7.60;;
71484;SDS011;59300;52.074;4.758;2022-07-18T07:02:33;12.18;;;7.82;;
71484;SDS011;59300;52.074;4.758;2022-07-18T07:05:51;11.98;;;7.68;;
71484;SDS011;59300;52.074;4.758;2022-07-18T07:09:10;15.35;;;7.15;;
71484;SDS011;59300;52.074;4.758;2022-07-18T07:12:29;11.77;;;7.03;;
71484;SDS011;59300;52.074;4.758;2022-07-18T07:15:48;12.52;;;6.22;;
71484;SDS011;59300;52.074;4.758;2022-07-18T07:19:07;10.65;;;6.13;;
71484;SDS011;59300;52.074;4.758;2022-07-18T07:22:26;12.07;;;6.20;;
71484;SDS011;59300;52.074;4.758;2022-07-18T07:25:45;10.75;;;5.72;;
71484;SDS011;59300;52.074;4.758;2022-07-18T07:29:05;9.15;;;5.40;;
71484;SDS011;59300;52.074;4.758;2022-07-18T07:32:24;10.98;;;5.30;;
71484;SDS011;59300;52.074;4.758;2022-07-18T07:35:43;9.07;;;5.10;;
71484;SDS011;59300;52.074;4.758;2022-07-18T07:39:02;10.52;;;4.68;;
71484;SDS011;59300;52.074;4.758;2022-07-18T07:42:21;9.65;;;5.13;;
71484;SDS011;59300;52.074;4.758;2022-07-18T07:45:40;11.38;;;4.97;;
71484;SDS011;59300;52.074;4.758;2022-07-18T07:49:00;8.30;;;4.60;;
71484;SDS011;59300;52.074;4.758;2022-07-18T07:52:19;9.55;;;4.90;;
71484;SDS011;59300;52.074;4.758;2022-07-18T07:55:38;9.80;;;4.95;;
71484;SDS011;59300;52.074;4.758;2022-07-18T07:58:57;8.85;;;4.07;;
71484;SDS011;59300;52.074;4.758;2022-07-18T08:02:16;10.80;;;4.55;;
71484;SDS011;59300;52.074;4.758;2022-07-18T08:05:36;11.38;;;4.93;;
71484;SDS011;59300;52.074;4.758;2022-07-18T08:08:57;8.80;;;4.82;;
71484;SDS011;59300;52.074;4.758;2022-07-18T08:12:16;8.45;;;4.57;;
71484;SDS011;59300;52.074;4.758;2022-07-18T08:15:35;7.72;;;4.00;;
71484;SDS011;59300;52.074;4.758;2022-07-18T08:18:54;8.68;;;4.40;;
71484;SDS011;59300;52.074;4.758;2022-07-18T08:22:13;10.07;;;4.57;;
71484;SDS011;59300;52.074;4.758;2022-07-18T08:25:33;9.43;;;4.10;;
71484;SDS011;59300;52.074;4.758;2022-07-18T08:28:56;8.50;;;4.10;;
71484;SDS011;59300;52.074;4.758;2022-07-18T08:32:15;8.80;;;4.13;;
71484;SDS011;59300;52.074;4.758;2022-07-18T08:35:34;7.50;;;3.65;;
71484;SDS011;59300;52.074;4.758;2022-07-18T08:38:53;7.07;;;3.60;;
71484;SDS011;59300;52.074;4.758;2022-07-18T08:42:12;8.50;;;3.83;;
71484;SDS011;59300;52.074;4.758;2022-07-18T08:45:32;9.40;;;4.10;;
71484;SDS011;59300;52.074;4.758;2022-07-18T08:48:52;6.78;;;4.10;;
71484;SDS011;59300;52.074;4.758;2022-07-18T08:52:11;11.02;;;4.38;;
71484;SDS011;59300;52.074;4.758;2022-07-18T08:55:30;7.85;;;3.45;;
71484;SDS011;59300;52.074;4.758;2022-07-18T08:58:49;8.27;;;3.97;;
71484;SDS011;59300;52.074;4.758;2022-07-18T09:02:08;6.18;;;3.05;;
71484;SDS011;59300;52.074;4.758;2022-07-18T09:05:28;7.53;;;3.67;;
71484;SDS011;59300;52.074;4.758;2022-07-18T09:08:57;10.75;;;3.88;;
71484;SDS011;59300;52.074;4.758;2022-07-18T09:12:18;7.80;;;3.28;;
71484;SDS011;59300;52.074;4.758;2022-07-18T09:15:42;5.88;;;3.70;;
71484;SDS011;59300;52.074;4.758;2022-07-18T09:19:16;10.13;;;3.65;;
71484;SDS011;59300;52.074;4.758;2022-07-18T09:22:36;7.93;;;3.90;;
71484;SDS011;59300;52.074;4.758;2022-07-18T09:25:56;12.05;;;3.78;;
71484;SDS011;59300;52.074;4.758;2022-07-18T09:29:16;9.68;;;3.55;;
71484;SDS011;59300;52.074;4.758;2022-07-18T09:32:36;7.05;;;3.65;;
71484;SDS011;59300;52.074;4.758;2022-07-18T09:35:56;12.65;;;3.42;;
71484;SDS011;59300;52.074;4.758;2022-07-18T09:39:16;5.78;;;3.40;;
71484;SDS011;59300;52.074;4.758;2022-07-18T09:42:38;11.55;;;3.80;;
71484;SDS011;59300;52.074;4.758;2022-07-18T09:45:58;7.47;;;3.60;;
71484;SDS011;59300;52.074;4.758;2022-07-18T09:49:23;10.05;;;3.55;;
71484;SDS011;59300;52.074;4.758;2022-07-18T09:56:36;8.48;;;3.92;;
71484;SDS011;59300;52.074;4.758;2022-07-18T09:59:55;9.43;;;3.65;;
71484;SDS011;59300;52.074;4.758;2022-07-18T10:03:15;13.23;;;4.00;;
71484;SDS011;59300;52.074;4.758;2022-07-18T10:06:35;7.60;;;3.72;;
71484;SDS011;59300;52.074;4.758;2022-07-18T10:09:54;7.47;;;3.75;;
71484;SDS011;59300;52.074;4.758;2022-07-18T10:13:13;6.97;;;3.80;;
71484;SDS011;59300;52.074;4.758;2022-07-18T10:16:34;7.60;;;3.25;;
71484;SDS011;59300;52.074;4.758;2022-07-18T10:19:53;5.82;;;3.13;;
71484;SDS011;59300;52.074;4.758;2022-07-18T10:23:20;9.88;;;3.55;;
71484;SDS011;59300;52.074;4.758;2022-07-18T10:26:41;6.40;;;3.50;;
71484;SDS011;59300;52.074;4.758;2022-07-18T10:30:10;7.93;;;3.40;;
71484;SDS011;59300;52.074;4.758;2022-07-18T10:33:43;8.27;;;3.65;;
71484;SDS011;59300;52.074;4.758;2022-07-18T10:40:24;7.35;;;3.17;;
71484;SDS011;59300;52.074;4.758;2022-07-18T10:43:47;5.50;;;2.95;;
71484;SDS011;59300;52.074;4.758;2022-07-18T10:47:13;8.05;;;3.20;;
71484;SDS011;59300;52.074;4.758;2022-07-18T10:50:58;6.15;;;3.00;;
71484;SDS011;59300;52.074;4.758;2022-07-18T10:54:18;6.28;;;2.63;;
71484;SDS011;59300;52.074;4.758;2022-07-18T11:01:11;7.28;;;3.00;;
71484;SDS011;59300;52.074;4.758;2022-07-18T11:04:36;8.45;;;3.25;;
71484;SDS011;59300;52.074;4.758;2022-07-18T11:11:22;4.95;;;3.40;;
71484;SDS011;59300;52.074;4.758;2022-07-18T11:18:20;7.90;;;3.22;;
71484;SDS011;59300;52.074;4.758;2022-07-18T11:21:39;6.15;;;2.90;;
71484;SDS011;59300;52.074;4.758;2022-07-18T11:24:58;4.85;;;2.67;;
71484;SDS011;59300;52.074;4.758;2022-07-18T11:28:17;7.47;;;3.20;;
71484;SDS011;59300;52.074;4.758;2022-07-18T11:31:49;5.63;;;3.08;;
71484;SDS011;59300;52.074;4.758;2022-07-18T11:35:08;6.35;;;3.80;;
71484;SDS011;59300;52.074;4.758;2022-07-18T11:38:27;7.28;;;3.25;;
71484;SDS011;59300;52.074;4.758;2022-07-18T11:41:46;8.70;;;2.85;;
71484;SDS011;59300;52.074;4.758;2022-07-18T11:45:06;5.88;;;2.60;;
71484;SDS011;59300;52.074;4.758;2022-07-18T11:48:27;7.15;;;2.92;;
71484;SDS011;59300;52.074;4.758;2022-07-18T11:51:46;5.88;;;2.75;;
71484;SDS011;59300;52.074;4.758;2022-07-18T11:55:05;6.45;;;2.75;;
71484;SDS011;59300;52.074;4.758;2022-07-18T11:58:24;5.22;;;3.00;;
71484;SDS011;59300;52.074;4.758;2022-07-18T12:01:44;5.72;;;3.00;;
71484;SDS011;59300;52.074;4.758;2022-07-18T12:05:03;9.07;;;3.90;;
71484;SDS011;59300;52.074;4.758;2022-07-18T12:11:48;8.30;;;3.30;;
71484;SDS011;59300;52.074;4.758;2022-07-18T12:15:07;19.48;;;3.47;;
71484;SDS011;59300;52.074;4.758;2022-07-18T12:18:29;5.57;;;2.88;;
71484;SDS011;59300;52.074;4.758;2022-07-18T12:21:50;14.85;;;3.30;;
71484;SDS011;59300;52.074;4.758;2022-07-18T12:25:09;8.32;;;3.33;;
71484;SDS011;59300;52.074;4.758;2022-07-18T12:28:28;5.85;;;2.92;;
71484;SDS011;59300;52.074;4.758;2022-07-18T12:31:48;8.88;;;3.20;;
71484;SDS011;59300;52.074;4.758;2022-07-18T12:35:08;7.22;;;3.13;;
71484;SDS011;59300;52.074;4.758;2022-07-18T12:38:27;8.55;;;3.55;;
71484;SDS011;59300;52.074;4.758;2022-07-18T12:41:46;5.78;;;3.35;;
71484;SDS011;59300;52.074;4.758;2022-07-18T12:45:06;7.72;;;3.33;;
71484;SDS011;59300;52.074;4.758;2022-07-18T12:48:29;8.98;;;3.38;;
71484;SDS011;59300;52.074;4.758;2022-07-18T12:51:50;4.70;;;3.00;;
71484;SDS011;59300;52.074;4.758;2022-07-18T12:55:09;7.00;;;2.90;;
71484;SDS011;59300;52.074;4.758;2022-07-18T12:58:28;5.35;;;2.88;;
71484;SDS011;59300;52.074;4.758;2022-07-18T13:01:46;5.10;;;2.67;;
71484;SDS011;59300;52.074;4.758;2022-07-18T13:05:06;9.00;;;2.80;;
71484;SDS011;59300;52.074;4.758;2022-07-18T13:08:25;3.15;;;2.22;;
71484;SDS011;59300;52.074;4.758;2022-07-18T13:11:44;7.53;;;2.50;;
71484;SDS011;59300;52.074;4.758;2022-07-18T13:15:03;4.90;;;2.42;;
71484;SDS011;59300;52.074;4.758;2022-07-18T13:18:23;4.75;;;2.40;;
71484;SDS011;59300;52.074;4.758;2022-07-18T13:21:42;6.55;;;2.60;;
71484;SDS011;59300;52.074;4.758;2022-07-18T13:25:09;5.25;;;2.75;;
71484;SDS011;59300;52.074;4.758;2022-07-18T13:28:29;5.70;;;2.55;;
71484;SDS011;59300;52.074;4.758;2022-07-18T13:31:48;5.55;;;2.60;;
71484;SDS011;59300;52.074;4.758;2022-07-18T13:35:06;5.38;;;2.50;;
71484;SDS011;59300;52.074;4.758;2022-07-18T13:38:26;3.15;;;2.30;;
71484;SDS011;59300;52.074;4.758;2022-07-18T13:41:45;5.53;;;2.95;;
71484;SDS011;59300;52.074;4.758;2022-07-18T13:45:05;8.38;;;2.90;;
71484;SDS011;59300;52.074;4.758;2022-07-18T13:48:25;6.28;;;2.30;;
71484;SDS011;59300;52.074;4.758;2022-07-18T13:51:44;3.58;;;2.40;;
71484;SDS011;59300;52.074;4.758;2022-07-18T13:55:03;7.43;;;2.67;;
71484;SDS011;59300;52.074;4.758;2022-07-18T13:58:22;3.85;;;2.20;;
71484;SDS011;59300;52.074;4.758;2022-07-18T14:01:41;4.53;;;2.50;;
71484;SDS011;59300;52.074;4.758;2022-07-18T14:05:00;4.63;;;2.50;;
71484;SDS011;59300;52.074;4.758;2022-07-18T14:08:19;4.28;;;2.30;;
71484;SDS011;59300;52.074;4.758;2022-07-18T14:11:38;5.85;;;2.50;;
71484;SDS011;59300;52.074;4.758;2022-07-18T14:14:58;4.10;;;2.20;;
71484;SDS011;59300;52.074;4.758;2022-07-18T14:18:17;4.90;;;2.30;;
71484;SDS011;59300;52.074;4.758;2022-07-18T14:21:36;4.78;;;2.47;;
71484;SDS011;59300;52.074;4.758;2022-07-18T14:24:54;5.10;;;2.25;;
71484;SDS011;59300;52.074;4.758;2022-07-18T14:28:13;2.55;;;2.05;;
71484;SDS011;59300;52.074;4.758;2022-07-18T14:31:32;6.40;;;2.42;;
71484;SDS011;59300;52.074;4.758;2022-07-18T14:34:51;2.72;;;2.30;;
71484;SDS011;59300;52.074;4.758;2022-07-18T14:38:11;6.95;;;2.30;;
71484;SDS011;59300;52.074;4.758;2022-07-18T14:41:30;7.80;;;2.80;;
71484;SDS011;59300;52.074;4.758;2022-07-18T14:44:49;2.88;;;2.20;;
71484;SDS011;59300;52.074;4.758;2022-07-18T14:48:07;3.47;;;2.33;;
71484;SDS011;59300;52.074;4.758;2022-07-18T14:51:26;6.78;;;2.40;;
71484;SDS011;59300;52.074;4.758;2022-07-18T14:54:45;8.15;;;2.33;;
71484;SDS011;59300;52.074;4.758;2022-07-18T14:58:04;6.22;;;2.70;;
71484;SDS011;59300;52.074;4.758;2022-07-18T15:01:23;3.22;;;2.80;;
71484;SDS011;59300;52.074;4.758;2022-07-18T15:04:42;4.22;;;2.78;;
71484;SDS011;59300;52.074;4.758;2022-07-18T15:08:01;4.90;;;2.60;;
71484;SDS011;59300;52.074;4.758;2022-07-18T15:11:20;3.47;;;2.55;;
71484;SDS011;59300;52.074;4.758;2022-07-18T15:14:39;3.88;;;2.65;;
71484;SDS011;59300;52.074;4.758;2022-07-18T15:17:58;4.45;;;2.78;;
71484;SDS011;59300;52.074;4.758;2022-07-18T15:21:17;7.47;;;2.50;;
71484;SDS011;59300;52.074;4.758;2022-07-18T15:24:36;4.60;;;2.53;;
71484;SDS011;59300;52.074;4.758;2022-07-18T15:27:55;9.10;;;2.60;;
71484;SDS011;59300;52.074;4.758;2022-07-18T15:31:14;7.32;;;2.40;;
71484;SDS011;59300;52.074;4.758;2022-07-18T15:34:36;3.33;;;2.35;;
71484;SDS011;59300;52.074;4.758;2022-07-18T15:37:56;6.75;;;2.60;;
71484;SDS011;59300;52.074;4.758;2022-07-18T15:41:15;5.30;;;2.42;;
71484;SDS011;59300;52.074;4.758;2022-07-18T15:44:34;4.13;;;2.40;;
71484;SDS011;59300;52.074;4.758;2022-07-18T15:47:53;4.22;;;2.90;;
71484;SDS011;59300;52.074;4.758;2022-07-18T15:51:12;6.30;;;2.78;;
71484;SDS011;59300;52.074;4.758;2022-07-18T15:54:32;3.53;;;2.40;;
71484;SDS011;59300;52.074;4.758;2022-07-18T15:57:51;4.20;;;2.40;;
71484;SDS011;59300;52.074;4.758;2022-07-18T16:01:10;3.92;;;2.53;;
71484;SDS011;59300;52.074;4.758;2022-07-18T16:04:29;3.83;;;2.47;;
71484;SDS011;59300;52.074;4.758;2022-07-18T16:07:48;4.20;;;2.45;;
71484;SDS011;59300;52.074;4.758;2022-07-18T16:11:07;4.00;;;2.30;;
71484;SDS011;59300;52.074;4.758;2022-07-18T16:14:26;2.42;;;2.20;;
71484;SDS011;59300;52.074;4.758;2022-07-18T16:17:45;3.67;;;2.40;;
71484;SDS011;59300;52.074;4.758;2022-07-18T16:21:04;5.10;;;2.35;;
71484;SDS011;59300;52.074;4.758;2022-07-18T16:24:24;4.25;;;2.33;;
71484;SDS011;59300;52.074;4.758;2022-07-18T16:27:43;7.35;;;2.30;;
71484;SDS011;59300;52.074;4.758;2022-07-18T16:31:02;7.32;;;2.10;;
71484;SDS011;59300;52.074;4.758;2022-07-18T16:34:21;5.07;;;2.08;;
71484;SDS011;59300;52.074;4.758;2022-07-18T16:37:40;9.60;;;2.13;;
71484;SDS011;59300;52.074;4.758;2022-07-18T16:40:59;5.60;;;2.38;;
71484;SDS011;59300;52.074;4.758;2022-07-18T16:44:19;4.93;;;2.55;;
71484;SDS011;59300;52.074;4.758;2022-07-18T16:47:38;6.43;;;2.45;;
71484;SDS011;59300;52.074;4.758;2022-07-18T16:50:58;4.78;;;2.45;;
71484;SDS011;59300;52.074;4.758;2022-07-18T16:54:18;7.07;;;2.30;;
71484;SDS011;59300;52.074;4.758;2022-07-18T16:57:37;3.33;;;2.28;;
71484;SDS011;59300;52.074;4.758;2022-07-18T17:00:57;4.03;;;2.53;;
71484;SDS011;59300;52.074;4.758;2022-07-18T17:04:16;4.40;;;2.50;;
71484;SDS011;59300;52.074;4.758;2022-07-18T17:07:35;2.95;;;2.28;;
71484;SDS011;59300;52.074;4.758;2022-07-18T17:10:54;4.78;;;2.40;;
71484;SDS011;59300;52.074;4.758;2022-07-18T17:14:13;4.07;;;2.20;;
71484;SDS011;59300;52.074;4.758;2022-07-18T17:17:32;2.85;;;2.00;;
71484;SDS011;59300;52.074;4.758;2022-07-18T17:20:51;2.40;;;2.03;;
71484;SDS011;59300;52.074;4.758;2022-07-18T17:24:10;8.55;;;2.25;;
71484;SDS011;59300;52.074;4.758;2022-07-18T17:27:29;5.68;;;2.45;;
71484;SDS011;59300;52.074;4.758;2022-07-18T17:30:48;4.60;;;2.80;;
71484;SDS011;59300;52.074;4.758;2022-07-18T17:34:07;5.07;;;2.83;;
71484;SDS011;59300;52.074;4.758;2022-07-18T17:37:26;5.40;;;3.00;;
71484;SDS011;59300;52.074;4.758;2022-07-18T17:40:45;5.03;;;2.75;;
71484;SDS011;59300;52.074;4.758;2022-07-18T17:44:05;5.13;;;3.00;;
71484;SDS011;59300;52.074;4.758;2022-07-18T17:47:24;5.72;;;2.78;;
71484;SDS011;59300;52.074;4.758;2022-07-18T17:50:43;7.65;;;2.97;;
71484;SDS011;59300;52.074;4.758;2022-07-18T17:54:03;6.63;;;2.95;;
71484;SDS011;59300;52.074;4.758;2022-07-18T17:57:22;4.03;;;2.70;;
71484;SDS011;59300;52.074;4.758;2022-07-18T18:00:41;5.65;;;2.80;;
71484;SDS011;59300;52.074;4.758;2022-07-18T18:04:00;6.07;;;2.90;;
71484;SDS011;59300;52.074;4.758;2022-07-18T18:07:19;5.30;;;3.00;;
71484;SDS011;59300;52.074;4.758;2022-07-18T18:10:38;9.50;;;3.35;;
71484;SDS011;59300;52.074;4.758;2022-07-18T18:13:57;5.78;;;2.88;;
71484;SDS011;59300;52.074;4.758;2022-07-18T18:17:16;7.57;;;3.08;;
71484;SDS011;59300;52.074;4.758;2022-07-18T18:20:35;7.38;;;3.13;;
71484;SDS011;59300;52.074;4.758;2022-07-18T18:23:54;4.88;;;3.33;;
71484;SDS011;59300;52.074;4.758;2022-07-18T18:27:13;9.38;;;3.20;;
71484;SDS011;59300;52.074;4.758;2022-07-18T18:30:32;4.50;;;3.20;;
71484;SDS011;59300;52.074;4.758;2022-07-18T18:33:51;5.72;;;3.15;;
71484;SDS011;59300;52.074;4.758;2022-07-18T18:37:10;10.50;;;3.10;;
71484;SDS011;59300;52.074;4.758;2022-07-18T18:40:29;6.93;;;3.00;;
71484;SDS011;59300;52.074;4.758;2022-07-18T18:43:48;5.70;;;3.00;;
71484;SDS011;59300;52.074;4.758;2022-07-18T18:47:07;8.30;;;2.90;;
71484;SDS011;59300;52.074;4.758;2022-07-18T18:50:26;5.00;;;3.08;;
71484;SDS011;59300;52.074;4.758;2022-07-18T18:53:45;5.40;;;3.20;;
71484;SDS011;59300;52.074;4.758;2022-07-18T18:57:04;7.88;;;3.47;;
71484;SDS011;59300;52.074;4.758;2022-07-18T19:00:23;5.90;;;3.28;;
71484;SDS011;59300;52.074;4.758;2022-07-18T19:03:42;7.43;;;3.35;;
71484;SDS011;59300;52.074;4.758;2022-07-18T19:07:00;8.45;;;3.25;;
71484;SDS011;59300;52.074;4.758;2022-07-18T19:10:19;7.10;;;2.92;;
71484;SDS011;59300;52.074;4.758;2022-07-18T19:13:39;4.70;;;2.92;;
71484;SDS011;59300;52.074;4.758;2022-07-18T19:16:58;4.28;;;2.92;;
71484;SDS011;59300;52.074;4.758;2022-07-18T19:20:17;4.05;;;3.00;;
71484;SDS011;59300;52.074;4.758;2022-07-18T19:23:35;6.15;;;3.20;;
71484;SDS011;59300;52.074;4.758;2022-07-18T19:26:55;6.97;;;3.10;;
71484;SDS011;59300;52.074;4.758;2022-07-18T19:30:13;5.22;;;3.17;;
71484;SDS011;59300;52.074;4.758;2022-07-18T19:33:33;4.65;;;3.15;;
71484;SDS011;59300;52.074;4.758;2022-07-18T19:36:52;4.90;;;3.10;;
71484;SDS011;59300;52.074;4.758;2022-07-18T19:40:11;8.15;;;3.38;;
71484;SDS011;59300;52.074;4.758;2022-07-18T19:43:31;5.00;;;3.33;;
71484;SDS011;59300;52.074;4.758;2022-07-18T19:46:50;5.03;;;3.25;;
71484;SDS011;59300;52.074;4.758;2022-07-18T19:50:09;3.70;;;3.28;;
71484;SDS011;59300;52.074;4.758;2022-07-18T19:53:28;4.50;;;3.40;;
71484;SDS011;59300;52.074;4.758;2022-07-18T19:56:46;6.47;;;3.47;;
71484;SDS011;59300;52.074;4.758;2022-07-18T20:00:06;7.53;;;3.80;;
71484;SDS011;59300;52.074;4.758;2022-07-18T20:03:30;8.57;;;3.53;;
71484;SDS011;59300;52.074;4.758;2022-07-18T20:06:49;7.93;;;3.60;;
71484;SDS011;59300;52.074;4.758;2022-07-18T20:10:09;5.90;;;3.40;;
71484;SDS011;59300;52.074;4.758;2022-07-18T20:13:28;7.50;;;3.97;;
71484;SDS011;59300;52.074;4.758;2022-07-18T20:16:47;5.25;;;3.40;;
71484;SDS011;59300;52.074;4.758;2022-07-18T20:20:06;6.60;;;3.60;;